Detall de PIREP

Printer-friendly versionPDF version

[2010/09/09 16:18:00]
Flight IATA:CT0001
Pilot Number:042
Company ICAO:CAT
Aircraft Type:DC3/A
PAX:3
Departing Airport: LERS
Destination Airport: LEDA
Alternate Airport:LEBL
Online: No
Route:ARBEK A29 REBUL
Flight Level:FL060
No Slew and time accel
No pause
Crash detect
Detect pilot in Cockpit between each 30 and 45 minutes
16:18 Zero fuel Weight: 20810 Lbs, Fuel Weight: 4819 Lbs
16:18 VATSIM:LERS 091530Z 13007KT 100V160 9999 FEW032 25/10 Q1018
16:18 VATSIM:LEDA 091600Z 27014KT 9999 FEW025 26/06 Q1019
16:19 VOICE CATALONIAN
16:20 Parking Brakes off
16:28 Take-off
16:28 Take off Weight: 25583 Lbs
16:28 Wind: 135 @ 007 Knots Heading: 229
16:28 POS N41 08 46 E001 10 11
16:28 Gear Up: 083 Knots
16:28 Flaps:1 at 83 Knots
16:28 Flaps:0 at 89 Knots
16:33 TOC
16:33 Fuel Weight: 4680 Lb
16:38 Flaps:1 at 127 Knots
16:38 TOD
16:38 Fuel Weight: 4639 Lb
16:38Flaps:0 at 121 Knots
16:43 Wind:025@007 Knots Heading: 303 Ground Speed: 123 Knots Altitude 2883 ft
16:49 Flaps:1 at 115 Knots
16:49 Gear Down: 103 Knots
16:49 Flaps:2 at 100 Knots
16:50 Flaps:3 at 92 Knots
16:50 Flaps:4 at 84 Knots
16:54 TouchDown:Rate -189 ft/min Speed: 69 Knots
16:54 VATSIM:LEDA 091630Z 25018KT 9999 FEW025 25/08 Q1019
16:54 Land
16:54 Wind:144@006 Knots
16:54 Heading: 310
16:54 Flight Duration: 00:26
16:54 Landing Weight: 25343 Lbs
16:54 POS N41 43 36 E000 32 13
16:57 Parking brakes on
16:57 Block to Block Duration: 00:37
16:57 Final Fuel: 4517 Lbls
16:57 Spent Fuel: 302 Lbls
16:57 Flight Length: 49 NM
16:57 TOD Land Length: 29 NM

Exportar CSV

Powered by Drupal - Modified by Danger4k